sensor_id;sensor_type;location;lat;lon;timestamp;temperature;humidity
1680;DHT22;838;51.794;12.258;2023-12-14T00:01:16;7.80;90.30
1680;DHT22;838;51.794;12.258;2023-12-14T00:03:42;7.60;90.80
1680;DHT22;838;51.794;12.258;2023-12-14T00:06:11;7.40;91.70
1680;DHT22;838;51.794;12.258;2023-12-14T00:08:37;7.20;92.50
1680;DHT22;838;51.794;12.258;2023-12-14T00:11:07;7.10;93.20
1680;DHT22;838;51.794;12.258;2023-12-14T00:13:33;7.10;93.60
1680;DHT22;838;51.794;12.258;2023-12-14T00:15:59;7.00;94.10
1680;DHT22;838;51.794;12.258;2023-12-14T00:18:25;7.00;94.30
1680;DHT22;838;51.794;12.258;2023-12-14T00:20:51;7.00;94.30
1680;DHT22;838;51.794;12.258;2023-12-14T00:23:18;7.00;94.50
1680;DHT22;838;51.794;12.258;2023-12-14T00:25:44;6.90;94.90
1680;DHT22;838;51.794;12.258;2023-12-14T00:28:09;6.90;94.60
1680;DHT22;838;51.794;12.258;2023-12-14T00:30:35;6.90;94.70
1680;DHT22;838;51.794;12.258;2023-12-14T00:33:01;7.00;94.70
1680;DHT22;838;51.794;12.258;2023-12-14T00:35:26;7.00;94.80
1680;DHT22;838;51.794;12.258;2023-12-14T00:37:52;7.10;94.40
1680;DHT22;838;51.794;12.258;2023-12-14T00:40:18;7.20;94.30
1680;DHT22;838;51.794;12.258;2023-12-14T00:42:44;7.20;94.00
1680;DHT22;838;51.794;12.258;2023-12-14T00:45:10;7.30;93.50
1680;DHT22;838;51.794;12.258;2023-12-14T00:47:35;7.50;93.70
1680;DHT22;838;51.794;12.258;2023-12-14T00:50:02;7.50;92.20
1680;DHT22;838;51.794;12.258;2023-12-14T00:52:27;7.40;92.30
1680;DHT22;838;51.794;12.258;2023-12-14T00:54:53;7.40;92.00
1680;DHT22;838;51.794;12.258;2023-12-14T00:57:19;7.50;91.90
1680;DHT22;838;51.794;12.258;2023-12-14T00:59:45;7.60;91.80
1680;DHT22;838;51.794;12.258;2023-12-14T01:02:10;7.70;91.20
1680;DHT22;838;51.794;12.258;2023-12-14T01:04:36;7.80;90.90
1680;DHT22;838;51.794;12.258;2023-12-14T01:07:02;7.90;91.10
1680;DHT22;838;51.794;12.258;2023-12-14T01:09:28;8.10;90.70
1680;DHT22;838;51.794;12.258;2023-12-14T01:11:53;8.30;89.30
1680;DHT22;838;51.794;12.258;2023-12-14T01:14:19;8.30;85.90
1680;DHT22;838;51.794;12.258;2023-12-14T01:16:45;8.20;85.70
1680;DHT22;838;51.794;12.258;2023-12-14T01:19:10;8.20;83.90
1680;DHT22;838;51.794;12.258;2023-12-14T01:21:36;8.10;83.50
1680;DHT22;838;51.794;12.258;2023-12-14T01:24:02;7.90;86.30
1680;DHT22;838;51.794;12.258;2023-12-14T01:26:28;7.60;89.40
1680;DHT22;838;51.794;12.258;2023-12-14T01:28:53;7.40;91.00
1680;DHT22;838;51.794;12.258;2023-12-14T01:31:19;7.20;92.00
1680;DHT22;838;51.794;12.258;2023-12-14T01:33:48;7.00;92.90
1680;DHT22;838;51.794;12.258;2023-12-14T01:36:25;7.00;93.70
1680;DHT22;838;51.794;12.258;2023-12-14T01:38:51;7.10;93.40
1680;DHT22;838;51.794;12.258;2023-12-14T01:41:17;7.20;93.20
1680;DHT22;838;51.794;12.258;2023-12-14T01:43:43;7.10;92.90
1680;DHT22;838;51.794;12.258;2023-12-14T01:46:10;7.10;93.10
1680;DHT22;838;51.794;12.258;2023-12-14T01:48:36;7.00;93.00
1680;DHT22;838;51.794;12.258;2023-12-14T01:51:02;6.90;93.70
1680;DHT22;838;51.794;12.258;2023-12-14T01:53:28;6.80;93.60
1680;DHT22;838;51.794;12.258;2023-12-14T01:55:54;6.80;93.90
1680;DHT22;838;51.794;12.258;2023-12-14T01:58:20;6.70;93.90
1680;DHT22;838;51.794;12.258;2023-12-14T02:03:33;6.60;94.40
1680;DHT22;838;51.794;12.258;2023-12-14T02:05:59;6.60;94.30
1680;DHT22;838;51.794;12.258;2023-12-14T02:08:27;6.50;94.30
1680;DHT22;838;51.794;12.258;2023-12-14T02:10:53;6.40;94.40
1680;DHT22;838;51.794;12.258;2023-12-14T02:13:18;6.30;94.50
1680;DHT22;838;51.794;12.258;2023-12-14T02:15:44;6.30;94.80
1680;DHT22;838;51.794;12.258;2023-12-14T02:18:10;6.30;95.00
1680;DHT22;838;51.794;12.258;2023-12-14T02:20:35;6.30;94.90
1680;DHT22;838;51.794;12.258;2023-12-14T02:23:01;6.20;94.60
1680;DHT22;838;51.794;12.258;2023-12-14T02:25:27;6.20;94.70
1680;DHT22;838;51.794;12.258;2023-12-14T02:27:53;6.20;94.80
1680;DHT22;838;51.794;12.258;2023-12-14T02:30:19;6.20;94.60
1680;DHT22;838;51.794;12.258;2023-12-14T02:32:45;6.20;94.60
1680;DHT22;838;51.794;12.258;2023-12-14T02:35:11;6.20;94.50
1680;DHT22;838;51.794;12.258;2023-12-14T02:37:36;6.20;94.40
1680;DHT22;838;51.794;12.258;2023-12-14T02:40:03;6.20;94.40
1680;DHT22;838;51.794;12.258;2023-12-14T02:42:30;6.10;94.20
1680;DHT22;838;51.794;12.258;2023-12-14T02:44:56;6.10;94.40
1680;DHT22;838;51.794;12.258;2023-12-14T02:47:22;6.10;94.50
1680;DHT22;838;51.794;12.258;2023-12-14T02:49:48;6.20;94.20
1680;DHT22;838;51.794;12.258;2023-12-14T02:52:14;6.20;94.00
1680;DHT22;838;51.794;12.258;2023-12-14T02:54:40;6.10;93.80
1680;DHT22;838;51.794;12.258;2023-12-14T02:57:06;6.20;93.90
1680;DHT22;838;51.794;12.258;2023-12-14T02:59:31;6.20;93.80
1680;DHT22;838;51.794;12.258;2023-12-14T03:01:57;6.20;93.80
1680;DHT22;838;51.794;12.258;2023-12-14T03:04:23;6.20;93.90
1680;DHT22;838;51.794;12.258;2023-12-14T03:06:49;6.20;94.10
1680;DHT22;838;51.794;12.258;2023-12-14T03:09:14;6.20;94.20
1680;DHT22;838;51.794;12.258;2023-12-14T03:11:40;6.20;94.10
1680;DHT22;838;51.794;12.258;2023-12-14T03:14:06;6.10;94.20
1680;DHT22;838;51.794;12.258;2023-12-14T03:16:32;6.10;94.30
1680;DHT22;838;51.794;12.258;2023-12-14T03:18:58;6.10;94.70
1680;DHT22;838;51.794;12.258;2023-12-14T03:21:23;6.10;94.40
1680;DHT22;838;51.794;12.258;2023-12-14T03:23:50;6.00;94.60
1680;DHT22;838;51.794;12.258;2023-12-14T03:26:16;5.90;94.90
1680;DHT22;838;51.794;12.258;2023-12-14T03:28:41;5.80;95.10
1680;DHT22;838;51.794;12.258;2023-12-14T03:31:10;5.80;95.30
1680;DHT22;838;51.794;12.258;2023-12-14T03:33:36;5.70;95.40
1680;DHT22;838;51.794;12.258;2023-12-14T03:36:03;5.70;95.60
1680;DHT22;838;51.794;12.258;2023-12-14T03:38:29;5.70;95.80
1680;DHT22;838;51.794;12.258;2023-12-14T03:40:55;5.70;95.80
1680;DHT22;838;51.794;12.258;2023-12-14T03:43:21;5.70;95.80
1680;DHT22;838;51.794;12.258;2023-12-14T03:45:46;5.70;95.80
1680;DHT22;838;51.794;12.258;2023-12-14T03:48:12;5.70;95.80
1680;DHT22;838;51.794;12.258;2023-12-14T03:50:38;5.70;96.00
1680;DHT22;838;51.794;12.258;2023-12-14T03:53:03;5.80;95.90
1680;DHT22;838;51.794;12.258;2023-12-14T03:55:29;5.70;95.80
1680;DHT22;838;51.794;12.258;2023-12-14T03:57:55;5.80;95.90
1680;DHT22;838;51.794;12.258;2023-12-14T04:00:20;5.80;95.80
1680;DHT22;838;51.794;12.258;2023-12-14T04:02:46;5.70;95.80
1680;DHT22;838;51.794;12.258;2023-12-14T04:05:12;5.70;95.80
1680;DHT22;838;51.794;12.258;2023-12-14T04:07:39;5.70;95.80
1680;DHT22;838;51.794;12.258;2023-12-14T04:10:15;5.70;95.80
1680;DHT22;838;51.794;12.258;2023-12-14T04:12:41;5.60;96.00
1680;DHT22;838;51.794;12.258;2023-12-14T04:15:08;5.60;96.10
1680;DHT22;838;51.794;12.258;2023-12-14T04:17:34;5.50;96.10
1680;DHT22;838;51.794;12.258;2023-12-14T04:20:01;5.40;96.20
1680;DHT22;838;51.794;12.258;2023-12-14T04:22:28;5.40;96.30
1680;DHT22;838;51.794;12.258;2023-12-14T04:24:54;5.30;96.50
1680;DHT22;838;51.794;12.258;2023-12-14T04:27:19;5.40;96.70
1680;DHT22;838;51.794;12.258;2023-12-14T04:29:46;5.40;96.60
1680;DHT22;838;51.794;12.258;2023-12-14T04:32:11;5.40;96.70
1680;DHT22;838;51.794;12.258;2023-12-14T04:34:37;5.30;96.50
1680;DHT22;838;51.794;12.258;2023-12-14T04:37:03;5.30;96.70
1680;DHT22;838;51.794;12.258;2023-12-14T04:39:29;5.30;96.60
1680;DHT22;838;51.794;12.258;2023-12-14T04:41:54;5.30;96.60
1680;DHT22;838;51.794;12.258;2023-12-14T04:44:21;5.30;96.50
1680;DHT22;838;51.794;12.258;2023-12-14T04:46:47;5.30;96.50
1680;DHT22;838;51.794;12.258;2023-12-14T04:49:13;5.20;96.40
1680;DHT22;838;51.794;12.258;2023-12-14T04:51:39;5.20;96.50
1680;DHT22;838;51.794;12.258;2023-12-14T04:54:05;5.10;96.50
1680;DHT22;838;51.794;12.258;2023-12-14T04:56:31;5.10;96.50
1680;DHT22;838;51.794;12.258;2023-12-14T04:58:57;5.10;96.60
1680;DHT22;838;51.794;12.258;2023-12-14T05:01:23;5.10;96.40
1680;DHT22;838;51.794;12.258;2023-12-14T05:03:50;5.00;96.20
1680;DHT22;838;51.794;12.258;2023-12-14T05:06:15;4.90;96.30
1680;DHT22;838;51.794;12.258;2023-12-14T05:08:41;4.90;96.40
1680;DHT22;838;51.794;12.258;2023-12-14T05:11:07;4.90;96.50
1680;DHT22;838;51.794;12.258;2023-12-14T05:13:32;4.90;96.60
1680;DHT22;838;51.794;12.258;2023-12-14T05:15:58;5.00;96.60
1680;DHT22;838;51.794;12.258;2023-12-14T05:18:24;5.10;96.50
1680;DHT22;838;51.794;12.258;2023-12-14T05:20:50;5.00;96.30
1680;DHT22;838;51.794;12.258;2023-12-14T05:23:16;5.00;96.40
1680;DHT22;838;51.794;12.258;2023-12-14T05:25:42;5.10;96.40
1680;DHT22;838;51.794;12.258;2023-12-14T05:28:08;5.10;96.40
1680;DHT22;838;51.794;12.258;2023-12-14T05:30:33;5.10;96.30
1680;DHT22;838;51.794;12.258;2023-12-14T05:32:59;5.10;96.20
1680;DHT22;838;51.794;12.258;2023-12-14T05:35:25;5.10;96.30
1680;DHT22;838;51.794;12.258;2023-12-14T05:37:51;5.00;96.20
1680;DHT22;838;51.794;12.258;2023-12-14T05:40:17;5.10;96.30
1680;DHT22;838;51.794;12.258;2023-12-14T05:42:42;5.00;96.00
1680;DHT22;838;51.794;12.258;2023-12-14T05:45:08;5.00;96.10
1680;DHT22;838;51.794;12.258;2023-12-14T05:47:34;4.90;96.00
1680;DHT22;838;51.794;12.258;2023-12-14T05:50:00;4.90;96.10
1680;DHT22;838;51.794;12.258;2023-12-14T05:52:27;4.90;96.20
1680;DHT22;838;51.794;12.258;2023-12-14T05:54:53;4.70;96.20
1680;DHT22;838;51.794;12.258;2023-12-14T05:57:18;4.70;96.30
1680;DHT22;838;51.794;12.258;2023-12-14T05:59:44;4.70;96.50
1680;DHT22;838;51.794;12.258;2023-12-14T06:02:10;4.40;96.50
1680;DHT22;838;51.794;12.258;2023-12-14T06:04:36;4.70;96.70
1680;DHT22;838;51.794;12.258;2023-12-14T06:07:02;4.70;96.70
1680;DHT22;838;51.794;12.258;2023-12-14T06:09:28;4.80;96.70
1680;DHT22;838;51.794;12.258;2023-12-14T06:12:03;4.80;96.60
1680;DHT22;838;51.794;12.258;2023-12-14T06:14:30;4.80;96.40
1680;DHT22;838;51.794;12.258;2023-12-14T06:16:56;4.80;96.30
1680;DHT22;838;51.794;12.258;2023-12-14T06:19:22;4.90;96.40
1680;DHT22;838;51.794;12.258;2023-12-14T06:21:48;4.80;96.10
1680;DHT22;838;51.794;12.258;2023-12-14T06:24:14;4.70;96.10
1680;DHT22;838;51.794;12.258;2023-12-14T06:26:41;4.70;96.20
1680;DHT22;838;51.794;12.258;2023-12-14T06:29:09;4.70;96.20
1680;DHT22;838;51.794;12.258;2023-12-14T06:31:35;4.70;96.50
1680;DHT22;838;51.794;12.258;2023-12-14T06:34:01;4.70;96.20
1680;DHT22;838;51.794;12.258;2023-12-14T06:36:29;4.70;96.00
1680;DHT22;838;51.794;12.258;2023-12-14T06:38:56;4.70;96.10
1680;DHT22;838;51.794;12.258;2023-12-14T06:41:23;4.60;96.20
1680;DHT22;838;51.794;12.258;2023-12-14T06:43:49;4.50;96.10
1680;DHT22;838;51.794;12.258;2023-12-14T06:46:15;4.40;96.10
1680;DHT22;838;51.794;12.258;2023-12-14T06:48:41;4.40;96.30
1680;DHT22;838;51.794;12.258;2023-12-14T06:51:07;4.40;96.30
1680;DHT22;838;51.794;12.258;2023-12-14T06:53:34;4.40;96.30
1680;DHT22;838;51.794;12.258;2023-12-14T06:56:00;4.30;96.30
1680;DHT22;838;51.794;12.258;2023-12-14T06:58:26;4.30;96.40
1680;DHT22;838;51.794;12.258;2023-12-14T07:00:51;4.30;96.40
1680;DHT22;838;51.794;12.258;2023-12-14T07:03:17;4.30;96.30
1680;DHT22;838;51.794;12.258;2023-12-14T07:05:43;4.30;96.20
1680;DHT22;838;51.794;12.258;2023-12-14T07:08:08;4.30;96.10
1680;DHT22;838;51.794;12.258;2023-12-14T07:10:34;4.20;96.10
1680;DHT22;838;51.794;12.258;2023-12-14T07:12:59;4.30;96.10
1680;DHT22;838;51.794;12.258;2023-12-14T07:15:25;4.20;95.70
1680;DHT22;838;51.794;12.258;2023-12-14T07:17:51;4.20;95.70
1680;DHT22;838;51.794;12.258;2023-12-14T07:20:17;4.20;95.70
1680;DHT22;838;51.794;12.258;2023-12-14T07:22:42;4.20;95.60
1680;DHT22;838;51.794;12.258;2023-12-14T07:25:08;4.20;95.70
1680;DHT22;838;51.794;12.258;2023-12-14T07:27:34;4.10;95.50
1680;DHT22;838;51.794;12.258;2023-12-14T07:30:00;4.10;95.90
1680;DHT22;838;51.794;12.258;2023-12-14T07:32:26;4.10;95.80
1680;DHT22;838;51.794;12.258;2023-12-14T07:34:52;4.20;95.90
1680;DHT22;838;51.794;12.258;2023-12-14T07:37:18;4.20;95.90
1680;DHT22;838;51.794;12.258;2023-12-14T07:39:44;4.10;95.90
1680;DHT22;838;51.794;12.258;2023-12-14T07:42:10;4.20;96.10
1680;DHT22;838;51.794;12.258;2023-12-14T07:44:36;4.30;96.00
1680;DHT22;838;51.794;12.258;2023-12-14T07:47:03;4.40;95.60
1680;DHT22;838;51.794;12.258;2023-12-14T07:49:29;4.30;95.60
1680;DHT22;838;51.794;12.258;2023-12-14T07:51:54;4.20;95.70
1680;DHT22;838;51.794;12.258;2023-12-14T07:54:20;4.20;95.90
1680;DHT22;838;51.794;12.258;2023-12-14T07:56:46;4.30;95.90
1680;DHT22;838;51.794;12.258;2023-12-14T07:59:11;4.20;95.70
1680;DHT22;838;51.794;12.258;2023-12-14T08:01:37;4.20;95.70
1680;DHT22;838;51.794;12.258;2023-12-14T08:04:03;4.30;95.70
1680;DHT22;838;51.794;12.258;2023-12-14T08:06:32;4.40;95.50
1680;DHT22;838;51.794;12.258;2023-12-14T08:08:57;4.30;95.40
1680;DHT22;838;51.794;12.258;2023-12-14T08:11:27;4.30;95.50
1680;DHT22;838;51.794;12.258;2023-12-14T08:13:52;4.20;95.20
1680;DHT22;838;51.794;12.258;2023-12-14T08:16:19;4.20;95.50
1680;DHT22;838;51.794;12.258;2023-12-14T08:18:45;4.20;95.70
1680;DHT22;838;51.794;12.258;2023-12-14T08:21:12;4.20;95.80
1680;DHT22;838;51.794;12.258;2023-12-14T08:23:38;4.10;95.90
1680;DHT22;838;51.794;12.258;2023-12-14T08:26:03;4.20;96.00
1680;DHT22;838;51.794;12.258;2023-12-14T08:28:29;4.10;96.00
1680;DHT22;838;51.794;12.258;2023-12-14T08:30:55;4.10;96.10
1680;DHT22;838;51.794;12.258;2023-12-14T08:33:23;4.00;96.20
1680;DHT22;838;51.794;12.258;2023-12-14T08:35:49;4.10;96.30
1680;DHT22;838;51.794;12.258;2023-12-14T08:38:15;4.10;96.30
1680;DHT22;838;51.794;12.258;2023-12-14T08:40:41;4.20;96.30
1680;DHT22;838;51.794;12.258;2023-12-14T08:43:07;4.20;95.80
1680;DHT22;838;51.794;12.258;2023-12-14T08:45:33;4.20;95.80
1680;DHT22;838;51.794;12.258;2023-12-14T08:47:59;4.20;95.70
1680;DHT22;838;51.794;12.258;2023-12-14T08:50:24;4.20;95.60
1680;DHT22;838;51.794;12.258;2023-12-14T08:52:52;4.20;95.60
1680;DHT22;838;51.794;12.258;2023-12-14T08:55:18;4.20;95.60
1680;DHT22;838;51.794;12.258;2023-12-14T08:57:44;4.20;95.60
1680;DHT22;838;51.794;12.258;2023-12-14T09:00:10;4.30;95.60
1680;DHT22;838;51.794;12.258;2023-12-14T09:02:36;4.20;95.30
1680;DHT22;838;51.794;12.258;2023-12-14T09:05:02;4.20;95.70
1680;DHT22;838;51.794;12.258;2023-12-14T09:07:30;4.30;95.60
1680;DHT22;838;51.794;12.258;2023-12-14T09:09:56;4.30;95.70
1680;DHT22;838;51.794;12.258;2023-12-14T09:12:22;4.30;95.70
1680;DHT22;838;51.794;12.258;2023-12-14T09:14:48;4.40;95.90
1680;DHT22;838;51.794;12.258;2023-12-14T09:17:13;4.50;95.70
1680;DHT22;838;51.794;12.258;2023-12-14T09:19:39;4.60;95.40
1680;DHT22;838;51.794;12.258;2023-12-14T09:22:05;4.70;95.40
1680;DHT22;838;51.794;12.258;2023-12-14T09:24:30;4.70;94.90
1680;DHT22;838;51.794;12.258;2023-12-14T09:26:56;4.70;94.60
1680;DHT22;838;51.794;12.258;2023-12-14T09:29:22;4.70;94.80
1680;DHT22;838;51.794;12.258;2023-12-14T09:31:48;4.60;94.40
1680;DHT22;838;51.794;12.258;2023-12-14T09:34:13;4.70;94.50
1680;DHT22;838;51.794;12.258;2023-12-14T09:36:39;4.60;94.10
1680;DHT22;838;51.794;12.258;2023-12-14T09:39:05;4.50;94.30
1680;DHT22;838;51.794;12.258;2023-12-14T09:41:38;4.40;94.40
1680;DHT22;838;51.794;12.258;2023-12-14T09:44:05;4.40;94.80
1680;DHT22;838;51.794;12.258;2023-12-14T09:46:34;4.50;94.80
1680;DHT22;838;51.794;12.258;2023-12-14T09:49:02;4.60;94.60
1680;DHT22;838;51.794;12.258;2023-12-14T09:51:29;4.50;94.20
1680;DHT22;838;51.794;12.258;2023-12-14T09:53:56;4.50;94.50
1680;DHT22;838;51.794;12.258;2023-12-14T09:56:26;4.50;94.60
1680;DHT22;838;51.794;12.258;2023-12-14T09:58:52;4.50;94.60
1680;DHT22;838;51.794;12.258;2023-12-14T10:01:22;4.60;94.40
1680;DHT22;838;51.794;12.258;2023-12-14T10:03:49;4.60;94.10
1680;DHT22;838;51.794;12.258;2023-12-14T10:06:17;4.60;94.40
1680;DHT22;838;51.794;12.258;2023-12-14T10:08:54;4.70;94.00
1680;DHT22;838;51.794;12.258;2023-12-14T10:11:21;4.70;93.50
1680;DHT22;838;51.794;12.258;2023-12-14T10:13:47;4.70;93.60
1680;DHT22;838;51.794;12.258;2023-12-14T10:16:27;4.70;93.80
1680;DHT22;838;51.794;12.258;2023-12-14T10:18:53;4.90;94.20
1680;DHT22;838;51.794;12.258;2023-12-14T10:21:19;5.00;93.30
1680;DHT22;838;51.794;12.258;2023-12-14T10:23:45;5.00;93.50
1680;DHT22;838;51.794;12.258;2023-12-14T10:26:12;5.00;92.90
1680;DHT22;838;51.794;12.258;2023-12-14T10:28:40;5.00;92.60
1680;DHT22;838;51.794;12.258;2023-12-14T10:31:06;4.80;92.60
1680;DHT22;838;51.794;12.258;2023-12-14T10:33:32;4.70;93.20
1680;DHT22;838;51.794;12.258;2023-12-14T10:35:58;4.60;93.60
1680;DHT22;838;51.794;12.258;2023-12-14T10:38:25;4.50;94.00
1680;DHT22;838;51.794;12.258;2023-12-14T10:40:53;4.50;94.40
1680;DHT22;838;51.794;12.258;2023-12-14T10:43:20;4.40;94.50
1680;DHT22;838;51.794;12.258;2023-12-14T10:45:46;4.50;94.70
1680;DHT22;838;51.794;12.258;2023-12-14T10:48:17;4.60;94.80
1680;DHT22;838;51.794;12.258;2023-12-14T10:50:46;4.70;94.20
1680;DHT22;838;51.794;12.258;2023-12-14T10:53:14;4.80;94.50
1680;DHT22;838;51.794;12.258;2023-12-14T10:55:44;4.70;93.80
1680;DHT22;838;51.794;12.258;2023-12-14T10:58:11;4.70;93.70
1680;DHT22;838;51.794;12.258;2023-12-14T11:00:37;4.70;93.70
1680;DHT22;838;51.794;12.258;2023-12-14T11:03:06;4.70;93.70
1680;DHT22;838;51.794;12.258;2023-12-14T11:05:33;4.70;93.50
1680;DHT22;838;51.794;12.258;2023-12-14T11:08:06;4.70;93.80
1680;DHT22;838;51.794;12.258;2023-12-14T11:10:43;4.60;93.50
1680;DHT22;838;51.794;12.258;2023-12-14T11:13:17;4.60;93.70
1680;DHT22;838;51.794;12.258;2023-12-14T11:15:51;4.60;93.90
1680;DHT22;838;51.794;12.258;2023-12-14T11:18:24;4.60;94.30
1680;DHT22;838;51.794;12.258;2023-12-14T11:20:57;4.70;94.30
1680;DHT22;838;51.794;12.258;2023-12-14T11:25:52;4.80;94.20
1680;DHT22;838;51.794;12.258;2023-12-14T11:28:19;4.70;93.70
1680;DHT22;838;51.794;12.258;2023-12-14T11:30:45;4.60;93.70
1680;DHT22;838;51.794;12.258;2023-12-14T11:33:12;4.60;94.10
1680;DHT22;838;51.794;12.258;2023-12-14T11:35:39;4.70;94.50
1680;DHT22;838;51.794;12.258;2023-12-14T11:38:05;4.70;93.90
1680;DHT22;838;51.794;12.258;2023-12-14T11:40:40;4.60;93.70
1680;DHT22;838;51.794;12.258;2023-12-14T11:43:07;4.70;93.90
1680;DHT22;838;51.794;12.258;2023-12-14T11:45:38;4.50;94.00
1680;DHT22;838;51.794;12.258;2023-12-14T11:48:05;4.60;94.50
1680;DHT22;838;51.794;12.258;2023-12-14T11:50:32;4.50;94.60
1680;DHT22;838;51.794;12.258;2023-12-14T11:53:02;4.40;94.70
1680;DHT22;838;51.794;12.258;2023-12-14T11:55:29;4.30;94.70
1680;DHT22;838;51.794;12.258;2023-12-14T11:57:58;4.30;95.10
1680;DHT22;838;51.794;12.258;2023-12-14T12:00:29;4.40;95.30
1680;DHT22;838;51.794;12.258;2023-12-14T12:03:18;4.40;95.00
1680;DHT22;838;51.794;12.258;2023-12-14T12:05:49;4.50;95.00
1680;DHT22;838;51.794;12.258;2023-12-14T12:08:16;4.50;94.70
1680;DHT22;838;51.794;12.258;2023-12-14T12:10:44;4.50;94.50
1680;DHT22;838;51.794;12.258;2023-12-14T12:13:18;4.40;94.10
1680;DHT22;838;51.794;12.258;2023-12-14T12:15:44;4.40;93.80
1680;DHT22;838;51.794;12.258;2023-12-14T12:18:11;4.30;94.10
1680;DHT22;838;51.794;12.258;2023-12-14T12:20:37;4.30;94.20
1680;DHT22;838;51.794;12.258;2023-12-14T12:23:03;4.30;94.30
1680;DHT22;838;51.794;12.258;2023-12-14T12:25:30;4.40;94.10
1680;DHT22;838;51.794;12.258;2023-12-14T12:27:59;4.30;94.00
1680;DHT22;838;51.794;12.258;2023-12-14T12:30:25;4.40;94.20
1680;DHT22;838;51.794;12.258;2023-12-14T12:32:51;4.40;94.20
1680;DHT22;838;51.794;12.258;2023-12-14T12:35:20;4.30;94.40
1680;DHT22;838;51.794;12.258;2023-12-14T12:37:46;4.30;94.70
1680;DHT22;838;51.794;12.258;2023-12-14T12:40:12;4.40;94.60
1680;DHT22;838;51.794;12.258;2023-12-14T12:42:40;4.40;94.70
1680;DHT22;838;51.794;12.258;2023-12-14T12:45:06;4.40;94.40
1680;DHT22;838;51.794;12.258;2023-12-14T12:47:32;4.50;94.30
1680;DHT22;838;51.794;12.258;2023-12-14T12:49:58;4.60;94.40
1680;DHT22;838;51.794;12.258;2023-12-14T12:52:23;4.70;94.30
1680;DHT22;838;51.794;12.258;2023-12-14T12:54:49;4.60;93.60
1680;DHT22;838;51.794;12.258;2023-12-14T12:57:15;4.50;93.80
1680;DHT22;838;51.794;12.258;2023-12-14T12:59:41;4.50;93.80
1680;DHT22;838;51.794;12.258;2023-12-14T13:02:06;4.50;94.10
1680;DHT22;838;51.794;12.258;2023-12-14T13:04:32;4.40;93.80
1680;DHT22;838;51.794;12.258;2023-12-14T13:06:58;4.40;94.00
1680;DHT22;838;51.794;12.258;2023-12-14T13:09:27;4.30;94.20
1680;DHT22;838;51.794;12.258;2023-12-14T13:11:53;4.20;94.60
1680;DHT22;838;51.794;12.258;2023-12-14T13:14:18;4.30;94.70
1680;DHT22;838;51.794;12.258;2023-12-14T13:16:44;4.20;94.60
1680;DHT22;838;51.794;12.258;2023-12-14T13:19:10;4.20;94.70
1680;DHT22;838;51.794;12.258;2023-12-14T13:21:36;4.20;94.80
1680;DHT22;838;51.794;12.258;2023-12-14T13:24:02;4.30;94.90
1680;DHT22;838;51.794;12.258;2023-12-14T13:26:28;4.30;94.50
1680;DHT22;838;51.794;12.258;2023-12-14T13:28:54;4.30;94.60
1680;DHT22;838;51.794;12.258;2023-12-14T13:31:21;4.40;94.60
1680;DHT22;838;51.794;12.258;2023-12-14T13:33:48;4.40;94.30
1680;DHT22;838;51.794;12.258;2023-12-14T13:36:15;4.40;94.20
1680;DHT22;838;51.794;12.258;2023-12-14T13:38:41;4.50;94.00
1680;DHT22;838;51.794;12.258;2023-12-14T13:41:08;4.50;94.20
1680;DHT22;838;51.794;12.258;2023-12-14T13:43:33;4.50;94.10
1680;DHT22;838;51.794;12.258;2023-12-14T13:45:59;4.50;93.90
1680;DHT22;838;51.794;12.258;2023-12-14T13:48:26;4.50;94.10
1680;DHT22;838;51.794;12.258;2023-12-14T13:50:52;4.50;93.90
1680;DHT22;838;51.794;12.258;2023-12-14T13:53:18;4.50;94.00
1680;DHT22;838;51.794;12.258;2023-12-14T13:55:43;4.50;94.00
1680;DHT22;838;51.794;12.258;2023-12-14T13:58:09;4.50;93.50
1680;DHT22;838;51.794;12.258;2023-12-14T14:00:35;4.40;93.60
1680;DHT22;838;51.794;12.258;2023-12-14T14:03:02;4.50;93.90
1680;DHT22;838;51.794;12.258;2023-12-14T14:05:29;4.50;93.70
1680;DHT22;838;51.794;12.258;2023-12-14T14:07:55;4.40;93.40
1680;DHT22;838;51.794;12.258;2023-12-14T14:10:21;4.40;93.80
1680;DHT22;838;51.794;12.258;2023-12-14T14:12:47;4.40;94.00
1680;DHT22;838;51.794;12.258;2023-12-14T14:15:13;4.40;94.30
1680;DHT22;838;51.794;12.258;2023-12-14T14:17:39;4.30;94.20
1680;DHT22;838;51.794;12.258;2023-12-14T14:20:05;4.30;94.60
1680;DHT22;838;51.794;12.258;2023-12-14T14:22:32;4.40;94.80
1680;DHT22;838;51.794;12.258;2023-12-14T14:24:58;4.50;94.60
1680;DHT22;838;51.794;12.258;2023-12-14T14:27:24;4.50;94.40
1680;DHT22;838;51.794;12.258;2023-12-14T14:29:50;4.40;94.00
1680;DHT22;838;51.794;12.258;2023-12-14T14:32:19;4.40;94.40
1680;DHT22;838;51.794;12.258;2023-12-14T14:34:45;4.40;94.50
1680;DHT22;838;51.794;12.258;2023-12-14T14:37:11;4.30;94.40
1680;DHT22;838;51.794;12.258;2023-12-14T14:39:36;4.40;94.70
1680;DHT22;838;51.794;12.258;2023-12-14T14:42:05;4.40;94.60
1680;DHT22;838;51.794;12.258;2023-12-14T14:44:31;4.40;94.70
1680;DHT22;838;51.794;12.258;2023-12-14T14:46:57;4.40;94.70
1680;DHT22;838;51.794;12.258;2023-12-14T14:49:23;4.40;94.60
1680;DHT22;838;51.794;12.258;2023-12-14T14:51:49;4.40;94.50
1680;DHT22;838;51.794;12.258;2023-12-14T14:54:14;4.50;94.80
1680;DHT22;838;51.794;12.258;2023-12-14T14:56:41;4.50;94.40
1680;DHT22;838;51.794;12.258;2023-12-14T14:59:06;4.50;94.50
1680;DHT22;838;51.794;12.258;2023-12-14T15:01:34;4.50;94.40
1680;DHT22;838;51.794;12.258;2023-12-14T15:04:03;4.50;94.60
1680;DHT22;838;51.794;12.258;2023-12-14T15:06:29;4.50;94.40
1680;DHT22;838;51.794;12.258;2023-12-14T15:08:54;4.60;94.60
1680;DHT22;838;51.794;12.258;2023-12-14T15:11:20;4.70;94.50
1680;DHT22;838;51.794;12.258;2023-12-14T15:13:46;4.70;94.10
1680;DHT22;838;51.794;12.258;2023-12-14T15:16:11;4.80;93.80
1680;DHT22;838;51.794;12.258;2023-12-14T15:18:38;4.80;93.70
1680;DHT22;838;51.794;12.258;2023-12-14T15:21:10;4.80;93.70
1680;DHT22;838;51.794;12.258;2023-12-14T15:23:36;4.90;93.90
1680;DHT22;838;51.794;12.258;2023-12-14T15:26:02;4.80;93.20
1680;DHT22;838;51.794;12.258;2023-12-14T15:28:28;4.80;93.60
1680;DHT22;838;51.794;12.258;2023-12-14T15:30:54;4.80;93.70
1680;DHT22;838;51.794;12.258;2023-12-14T15:33:19;4.90;93.80
1680;DHT22;838;51.794;12.258;2023-12-14T15:35:46;4.80;93.10
1680;DHT22;838;51.794;12.258;2023-12-14T15:38:12;4.80;93.30
1680;DHT22;838;51.794;12.258;2023-12-14T15:40:38;4.80;94.00
1680;DHT22;838;51.794;12.258;2023-12-14T15:43:04;4.80;93.40
1680;DHT22;838;51.794;12.258;2023-12-14T15:45:31;4.90;93.80
1680;DHT22;838;51.794;12.258;2023-12-14T15:48:02;4.80;93.60
1680;DHT22;838;51.794;12.258;2023-12-14T15:50:28;4.80;93.60
1680;DHT22;838;51.794;12.258;2023-12-14T15:52:54;4.90;93.90
1680;DHT22;838;51.794;12.258;2023-12-14T15:55:20;4.90;93.80
1680;DHT22;838;51.794;12.258;2023-12-14T15:57:48;4.80;93.70
1680;DHT22;838;51.794;12.258;2023-12-14T16:00:14;4.90;93.90
1680;DHT22;838;51.794;12.258;2023-12-14T16:02:41;5.00;94.20
1680;DHT22;838;51.794;12.258;2023-12-14T16:05:08;5.00;93.60
1680;DHT22;838;51.794;12.258;2023-12-14T16:07:34;5.00;93.40
1680;DHT22;838;51.794;12.258;2023-12-14T16:10:00;5.00;94.00
1680;DHT22;838;51.794;12.258;2023-12-14T16:12:26;5.10;93.70
1680;DHT22;838;51.794;12.258;2023-12-14T16:14:52;5.10;93.70
1680;DHT22;838;51.794;12.258;2023-12-14T16:17:24;5.00;93.50